createdAt,value
2023-04-09T00:01:27.216Z,5.00
2023-04-09T00:03:55.569Z,6.10
2023-04-09T00:06:24.090Z,6.10
2023-04-09T00:08:52.485Z,5.50
2023-04-09T00:11:21.767Z,6.70
2023-04-09T00:13:52.838Z,6.00
2023-04-09T00:16:21.134Z,5.60
2023-04-09T00:18:49.569Z,5.90
2023-04-09T00:21:18.804Z,5.70
2023-04-09T00:23:47.344Z,5.30
2023-04-09T00:26:15.981Z,6.10
2023-04-09T00:28:44.149Z,6.10
2023-04-09T00:31:13.720Z,6.00
2023-04-09T00:33:43.041Z,5.40
2023-04-09T00:36:14.146Z,5.90
2023-04-09T00:38:42.708Z,6.10
2023-04-09T00:41:13.587Z,6.20
2023-04-09T00:43:41.846Z,5.50
2023-04-09T00:46:10.039Z,5.80
2023-04-09T00:48:39.084Z,5.40
2023-04-09T00:51:08.212Z,6.00
2023-04-09T00:53:36.436Z,5.60
2023-04-09T00:56:05.173Z,6.10
2023-04-09T00:58:33.584Z,6.10
2023-04-09T01:01:02.228Z,7.00
2023-04-09T01:03:32.025Z,7.00
2023-04-09T01:06:08.680Z,5.90
2023-04-09T01:08:46.226Z,5.70
2023-04-09T01:11:26.983Z,5.90
2023-04-09T01:14:01.457Z,5.50
2023-04-09T01:16:30.069Z,6.10
2023-04-09T01:19:02.353Z,6.20
2023-04-09T01:21:31.588Z,5.90
2023-04-09T01:24:42.859Z,6.20
2023-04-09T01:27:12.519Z,5.80
2023-04-09T01:29:51.435Z,6.40
2023-04-09T01:32:19.942Z,6.10
2023-04-09T01:34:50.689Z,6.30
2023-04-09T01:37:19.132Z,6.20
2023-04-09T01:39:47.483Z,6.20
2023-04-09T01:42:16.203Z,5.90
2023-04-09T01:44:44.271Z,5.80
2023-04-09T01:47:12.604Z,5.60
2023-04-09T01:49:42.215Z,6.60
2023-04-09T01:52:10.707Z,6.80
2023-04-09T01:54:39.051Z,6.70
2023-04-09T01:57:07.138Z,6.40
2023-04-09T01:59:35.730Z,5.50
2023-04-09T02:02:11.443Z,5.70
2023-04-09T02:04:41.484Z,5.90
2023-04-09T02:07:22.712Z,6.20
2023-04-09T02:09:51.379Z,6.50
2023-04-09T02:12:22.533Z,6.00
2023-04-09T02:14:52.909Z,6.10
2023-04-09T02:17:21.499Z,6.60
2023-04-09T02:19:49.756Z,6.40
2023-04-09T02:22:18.557Z,7.50
2023-04-09T02:24:47.180Z,6.50
2023-04-09T02:27:16.362Z,6.20
2023-04-09T02:29:44.541Z,5.90
2023-04-09T02:32:13.796Z,5.80
2023-04-09T02:34:43.943Z,6.80
2023-04-09T02:37:12.682Z,6.80
2023-04-09T02:39:41.412Z,8.00
2023-04-09T02:42:09.706Z,7.40
2023-04-09T02:44:38.121Z,7.00
2023-04-09T02:47:09.948Z,6.90
2023-04-09T02:49:39.483Z,6.90
2023-04-09T02:52:10.880Z,6.60
2023-04-09T02:54:40.414Z,7.90
2023-04-09T02:57:09.223Z,6.90
2023-04-09T02:59:39.149Z,7.60
2023-04-09T03:02:07.510Z,7.20
2023-04-09T03:04:36.067Z,7.10
2023-04-09T03:07:04.558Z,6.40
2023-04-09T03:09:37.934Z,7.20
2023-04-09T03:12:06.641Z,7.70
2023-04-09T03:14:35.319Z,6.60
2023-04-09T03:17:03.742Z,7.10
2023-04-09T03:19:31.945Z,6.30
2023-04-09T03:22:01.731Z,7.20
2023-04-09T03:24:34.719Z,7.00
2023-04-09T03:27:06.461Z,7.10
2023-04-09T03:29:35.061Z,6.70
2023-04-09T03:32:03.577Z,6.50
2023-04-09T03:34:31.754Z,6.70
2023-04-09T03:37:00.159Z,7.20
2023-04-09T03:39:31.861Z,7.40
2023-04-09T03:42:07.849Z,7.80
2023-04-09T03:44:44.571Z,7.40
2023-04-09T03:47:17.437Z,7.00
2023-04-09T03:49:46.299Z,7.10
2023-04-09T03:52:20.389Z,6.80
2023-04-09T03:54:55.429Z,7.00
2023-04-09T03:57:25.338Z,6.80
2023-04-09T03:59:55.715Z,6.60
2023-04-09T04:02:27.574Z,6.40
2023-04-09T04:05:00.439Z,6.90
2023-04-09T04:07:33.032Z,7.10
2023-04-09T04:10:08.626Z,7.00
2023-04-09T04:12:44.432Z,7.50
2023-04-09T04:15:20.320Z,7.10
2023-04-09T04:17:53.915Z,7.30
2023-04-09T04:20:57.834Z,6.50
2023-04-09T04:32:05.693Z,7.50
2023-04-09T04:34:37.195Z,6.80
2023-04-09T04:37:10.300Z,7.40
2023-04-09T04:39:37.768Z,7.20
2023-04-09T04:42:09.919Z,7.70
2023-04-09T04:44:37.430Z,7.90
2023-04-09T04:47:29.608Z,7.30
2023-04-09T04:49:58.309Z,7.90
2023-04-09T04:52:30.715Z,8.30
2023-04-09T04:54:57.564Z,7.10
2023-04-09T04:57:25.283Z,7.30
2023-04-09T05:00:00.023Z,7.20
2023-04-09T05:02:27.176Z,7.90
2023-04-09T05:05:13.424Z,7.70
2023-04-09T05:07:45.497Z,8.30
2023-04-09T05:10:12.449Z,7.50
2023-04-09T05:12:42.806Z,7.20
2023-04-09T05:15:11.338Z,8.10
2023-04-09T05:17:43.020Z,7.80
2023-04-09T05:20:11.048Z,8.50
2023-04-09T05:22:46.854Z,8.40
2023-04-09T05:25:16.649Z,7.60
2023-04-09T05:27:43.603Z,8.40
2023-04-09T05:30:11.012Z,7.80
2023-04-09T05:32:38.276Z,8.70
2023-04-09T05:35:05.707Z,8.80
2023-04-09T05:37:34.447Z,7.90
2023-04-09T05:40:04.494Z,7.40
2023-04-09T05:42:31.612Z,7.20
2023-04-09T05:45:14.893Z,8.50
2023-04-09T05:50:20.678Z,8.80
2023-04-09T05:52:50.989Z,8.10
2023-04-09T05:55:18.019Z,8.20
2023-04-09T05:57:52.603Z,7.80
2023-04-09T06:00:24.207Z,7.50
2023-04-09T06:02:52.061Z,8.20
2023-04-09T06:05:20.740Z,8.80
2023-04-09T06:07:52.301Z,7.40
2023-04-09T06:10:19.672Z,7.50
2023-04-09T06:12:48.369Z,7.80
2023-04-09T06:15:18.144Z,7.30
2023-04-09T06:17:45.799Z,7.30
2023-04-09T06:20:13.085Z,7.40
2023-04-09T06:22:40.989Z,7.40
2023-04-09T06:25:09.324Z,7.40
2023-04-09T06:27:36.556Z,6.30
2023-04-09T06:30:08.093Z,7.80
2023-04-09T06:32:46.928Z,6.00
2023-04-09T06:35:21.159Z,6.70
2023-04-09T06:37:48.412Z,6.20
2023-04-09T06:40:15.525Z,6.60
2023-04-09T06:42:42.432Z,7.20
2023-04-09T06:45:16.518Z,7.10
2023-04-09T06:47:43.433Z,6.00
2023-04-09T06:50:11.198Z,6.00
2023-04-09T06:52:38.585Z,6.40
2023-04-09T06:55:05.835Z,6.30
2023-04-09T06:57:33.946Z,6.00
2023-04-09T07:00:00.910Z,5.90
2023-04-09T07:02:31.855Z,5.70
2023-04-09T07:05:00.490Z,5.90
2023-04-09T07:07:27.312Z,5.60
2023-04-09T07:09:54.559Z,5.90
2023-04-09T07:12:30.404Z,5.00
2023-04-09T07:15:01.880Z,5.20
2023-04-09T07:17:30.324Z,4.90
2023-04-09T07:20:03.512Z,5.40
2023-04-09T07:22:31.344Z,5.20
2023-04-09T07:24:58.636Z,4.40
2023-04-09T07:27:27.012Z,4.30
2023-04-09T07:29:55.549Z,4.80
2023-04-09T07:32:23.766Z,4.30
2023-04-09T07:34:52.031Z,5.80
2023-04-09T07:37:19.030Z,5.60
2023-04-09T07:39:50.664Z,4.80
2023-04-09T07:42:17.730Z,5.30
2023-04-09T07:44:44.803Z,4.30
2023-04-09T07:47:18.419Z,4.40
2023-04-09T07:49:47.583Z,4.30
2023-04-09T07:52:14.448Z,4.40
2023-04-09T07:54:48.133Z,4.80
2023-04-09T07:57:15.489Z,5.00
2023-04-09T07:59:42.530Z,4.80
2023-04-09T08:02:15.239Z,4.90
2023-04-09T08:04:42.688Z,4.70
2023-04-09T08:07:10.070Z,4.60
2023-04-09T08:09:41.294Z,5.30
2023-04-09T08:12:08.332Z,4.60
2023-04-09T08:14:40.887Z,5.40
2023-04-09T08:17:07.873Z,6.10
2023-04-09T08:19:35.424Z,4.50
2023-04-09T08:22:02.816Z,4.80
2023-04-09T08:24:30.679Z,6.30
2023-04-09T08:26:57.973Z,7.00
2023-04-09T08:29:26.610Z,5.70
2023-04-09T08:31:53.761Z,6.90
2023-04-09T08:34:21.579Z,6.80
2023-04-09T08:36:51.423Z,5.80
2023-04-09T08:39:20.165Z,5.70
2023-04-09T08:41:47.787Z,7.60
2023-04-09T08:44:14.906Z,7.70
2023-04-09T08:46:42.322Z,7.80
2023-04-09T08:49:10.326Z,7.60
2023-04-09T08:51:38.910Z,6.90
2023-04-09T08:54:05.890Z,6.70
2023-04-09T08:56:33.301Z,6.70
2023-04-09T08:59:00.235Z,6.80
2023-04-09T09:01:31.123Z,7.00
2023-04-09T09:04:03.425Z,7.10
2023-04-09T09:06:38.283Z,7.70
2023-04-09T09:09:06.237Z,7.90
2023-04-09T09:11:35.933Z,8.10
2023-04-09T09:14:09.682Z,7.10
2023-04-09T09:16:57.039Z,6.90
2023-04-09T09:19:23.891Z,7.40
2023-04-09T09:21:57.928Z,6.80
2023-04-09T09:24:25.798Z,7.50
2023-04-09T09:26:54.089Z,7.50
2023-04-09T09:29:21.604Z,5.70
2023-04-09T09:32:00.991Z,6.60
2023-04-09T09:34:28.168Z,7.10
2023-04-09T09:36:55.294Z,6.40
2023-04-09T09:39:22.218Z,6.40
2023-04-09T09:42:06.000Z,6.50
2023-04-09T09:44:33.530Z,7.20
2023-04-09T09:47:00.633Z,6.40
2023-04-09T09:49:29.312Z,6.50
2023-04-09T09:51:57.846Z,6.80
2023-04-09T09:54:26.769Z,6.70
2023-04-09T09:56:55.337Z,6.30
2023-04-09T09:59:23.219Z,6.60
2023-04-09T10:01:55.156Z,6.10
2023-04-09T10:04:22.177Z,5.70
2023-04-09T10:06:50.222Z,5.20
2023-04-09T10:09:18.041Z,6.30
2023-04-09T10:11:48.722Z,5.90
2023-04-09T10:14:21.843Z,6.00
2023-04-09T10:16:51.101Z,5.70
2023-04-09T10:19:18.042Z,5.90
2023-04-09T10:21:53.018Z,7.10
2023-04-09T10:24:19.997Z,6.10
2023-04-09T10:26:47.191Z,6.70
2023-04-09T10:29:15.886Z,6.50
2023-04-09T10:32:05.225Z,6.30
2023-04-09T10:34:39.538Z,5.70
2023-04-09T10:37:14.043Z,5.00
2023-04-09T10:39:45.107Z,5.10
2023-04-09T10:42:26.742Z,5.00
2023-04-09T10:45:04.338Z,6.00
2023-04-09T10:47:34.188Z,5.70
2023-04-09T10:50:17.841Z,5.20
2023-04-09T10:52:45.684Z,6.20
2023-04-09T10:55:30.808Z,6.00
2023-04-09T10:58:06.948Z,5.60
2023-04-09T11:00:42.978Z,5.80
2023-04-09T11:03:21.534Z,6.20
2023-04-09T11:06:02.027Z,6.20
2023-04-09T11:08:32.090Z,6.10
2023-04-09T11:11:02.221Z,5.70
2023-04-09T11:13:30.657Z,5.80
2023-04-09T11:18:44.941Z,5.40
2023-04-09T11:21:15.881Z,6.70
2023-04-09T11:23:53.354Z,6.30
2023-04-09T11:26:35.444Z,6.60
2023-04-09T11:29:08.750Z,6.80
2023-04-09T11:31:43.973Z,6.80
2023-04-09T11:34:33.452Z,5.60
2023-04-09T11:37:06.579Z,6.00
2023-04-09T11:39:37.391Z,5.60
2023-04-09T11:42:05.458Z,5.90
2023-04-09T11:44:47.028Z,5.90
2023-04-09T11:47:33.620Z,5.80
2023-04-09T11:50:02.396Z,5.10
2023-04-09T11:52:47.885Z,5.00
2023-04-09T11:55:31.644Z,5.80
2023-04-09T11:58:02.729Z,5.40
2023-04-09T12:00:31.728Z,5.70
2023-04-09T12:03:03.969Z,6.00
2023-04-09T12:05:50.919Z,5.50
2023-04-09T12:08:23.230Z,5.10
2023-04-09T12:11:09.258Z,5.70
2023-04-09T12:13:44.372Z,5.50
2023-04-09T12:16:13.063Z,5.70
2023-04-09T12:19:06.348Z,8.50
2023-04-09T12:21:57.901Z,8.90
2023-04-09T12:24:25.399Z,8.00
2023-04-09T12:26:53.720Z,7.60
2023-04-09T12:29:20.776Z,7.50
2023-04-09T12:31:49.281Z,7.10
2023-04-09T12:34:20.091Z,6.20
2023-04-09T12:36:47.036Z,5.70
2023-04-09T12:39:14.029Z,5.90
2023-04-09T12:41:40.899Z,5.60
2023-04-09T12:44:08.325Z,5.60
2023-04-09T12:46:37.369Z,4.30
2023-04-09T12:49:09.614Z,3.40
2023-04-09T12:51:39.279Z,3.50
2023-04-09T12:54:06.142Z,2.60
2023-04-09T12:56:34.578Z,3.80
2023-04-09T12:59:04.108Z,3.10
2023-04-09T13:01:32.507Z,3.30
2023-04-09T13:03:59.549Z,3.60
2023-04-09T13:06:32.046Z,3.00
2023-04-09T13:09:00.234Z,3.30
2023-04-09T13:11:27.432Z,3.10
2023-04-09T13:13:54.475Z,2.80
2023-04-09T13:16:21.790Z,3.00
2023-04-09T13:18:49.308Z,2.90
2023-04-09T13:21:18.465Z,3.80
2023-04-09T13:23:46.915Z,3.20
2023-04-09T13:26:13.777Z,3.20
2023-04-09T13:28:47.907Z,3.50
2023-04-09T13:31:15.446Z,3.90
2023-04-09T13:33:50.308Z,3.90
2023-04-09T13:36:17.853Z,4.10
2023-04-09T13:38:44.820Z,3.60
2023-04-09T13:41:17.340Z,3.90
2023-04-09T13:43:48.239Z,3.90
2023-04-09T13:46:17.417Z,3.70
2023-04-09T13:48:44.794Z,4.90
2023-04-09T13:51:12.676Z,4.00
2023-04-09T13:53:40.715Z,3.60
2023-04-09T13:56:07.913Z,3.20
2023-04-09T13:58:36.957Z,3.30
2023-04-09T14:01:04.079Z,2.40
2023-04-09T14:03:39.686Z,2.30
2023-04-09T14:06:07.949Z,2.40
2023-04-09T14:08:36.242Z,2.20
2023-04-09T14:11:06.169Z,2.00
2023-04-09T14:13:35.895Z,2.40
2023-04-09T14:16:04.221Z,2.20
2023-04-09T14:18:35.829Z,2.60
2023-04-09T14:21:03.113Z,3.10
2023-04-09T14:23:30.841Z,3.30
2023-04-09T14:25:58.714Z,3.30
2023-04-09T14:28:27.473Z,3.60
2023-04-09T14:31:00.249Z,3.80
2023-04-09T14:33:45.571Z,3.40
2023-04-09T14:36:19.407Z,3.70
2023-04-09T14:38:51.009Z,3.10
2023-04-09T14:41:19.620Z,2.60
2023-04-09T14:43:49.721Z,3.70
2023-04-09T14:46:27.146Z,3.00
2023-04-09T14:48:54.481Z,2.60
2023-04-09T14:51:34.033Z,2.60
2023-04-09T14:54:01.452Z,2.40
2023-04-09T14:56:45.827Z,2.20
2023-04-09T14:59:13.472Z,2.10
2023-04-09T15:01:40.334Z,1.50
2023-04-09T15:04:27.292Z,1.70
2023-04-09T15:07:01.398Z,1.60
2023-04-09T15:09:28.593Z,1.80
2023-04-09T15:11:57.713Z,1.60
2023-04-09T15:14:30.204Z,1.70
2023-04-09T15:16:57.941Z,1.50
2023-04-09T15:19:25.450Z,1.20
2023-04-09T15:22:02.849Z,1.60
2023-04-09T15:24:47.090Z,2.00
2023-04-09T15:27:15.390Z,1.90
2023-04-09T15:29:48.620Z,2.00
2023-04-09T15:32:22.617Z,1.80
2023-04-09T15:34:50.121Z,1.90
2023-04-09T15:37:22.026Z,1.70
2023-04-09T15:39:50.069Z,1.70
2023-04-09T15:42:22.336Z,1.80
2023-04-09T15:45:09.455Z,1.60
2023-04-09T15:47:46.572Z,1.50
2023-04-09T15:50:17.146Z,1.90
2023-04-09T15:52:44.324Z,1.80
2023-04-09T15:55:13.134Z,1.70
2023-04-09T15:57:46.129Z,1.70
2023-04-09T16:00:13.067Z,2.00
2023-04-09T16:02:59.935Z,1.60
2023-04-09T16:05:32.128Z,1.90
2023-04-09T16:07:59.962Z,1.70
2023-04-09T16:10:30.631Z,1.60
2023-04-09T16:12:58.247Z,2.30
2023-04-09T16:15:28.079Z,1.70
2023-04-09T16:17:57.514Z,1.40
2023-04-09T16:20:29.028Z,1.60
2023-04-09T16:22:56.189Z,1.60
2023-04-09T16:25:24.945Z,1.30
2023-04-09T16:27:56.610Z,1.50
2023-04-09T16:30:31.335Z,1.30
2023-04-09T16:32:59.296Z,1.30
2023-04-09T16:35:26.851Z,1.80
2023-04-09T16:38:08.977Z,1.20
2023-04-09T16:40:46.050Z,1.40
2023-04-09T16:43:18.968Z,1.40
2023-04-09T16:45:48.850Z,1.50
2023-04-09T16:48:36.572Z,1.50
2023-04-09T16:51:03.880Z,1.20
2023-04-09T16:53:43.871Z,1.60
2023-04-09T16:56:19.007Z,1.50
2023-04-09T16:58:48.674Z,1.60
2023-04-09T17:01:20.074Z,1.90
2023-04-09T17:03:49.015Z,1.60
2023-04-09T17:06:16.275Z,1.60
2023-04-09T17:08:45.995Z,1.80
2023-04-09T17:11:16.623Z,3.10
2023-04-09T17:13:44.496Z,3.20
2023-04-09T17:16:12.166Z,3.70
2023-04-09T17:18:52.063Z,3.30
2023-04-09T17:21:45.159Z,2.90
2023-04-09T17:24:12.738Z,2.80
2023-04-09T17:26:44.206Z,2.80
2023-04-09T17:29:11.524Z,2.80
2023-04-09T17:31:39.331Z,2.60
2023-04-09T17:34:19.393Z,2.60
2023-04-09T17:36:49.368Z,3.20
2023-04-09T17:39:24.592Z,4.20
2023-04-09T17:41:55.977Z,4.60
2023-04-09T17:44:24.684Z,4.50
2023-04-09T17:46:54.305Z,4.70
2023-04-09T17:49:21.860Z,4.60
2023-04-09T17:51:49.271Z,5.00
2023-04-09T17:54:22.045Z,4.70
2023-04-09T17:56:51.874Z,3.60
2023-04-09T17:59:29.351Z,3.40
2023-04-09T18:02:15.986Z,3.50
2023-04-09T18:04:43.015Z,3.20
2023-04-09T18:07:11.384Z,3.90
2023-04-09T18:09:40.015Z,3.60
2023-04-09T18:12:06.961Z,3.90
2023-04-09T18:14:44.148Z,3.20
2023-04-09T18:17:16.253Z,3.00
2023-04-09T18:19:43.458Z,3.30
2023-04-09T18:22:14.301Z,3.70
2023-04-09T18:24:47.078Z,4.00
2023-04-09T18:27:17.205Z,3.80
2023-04-09T18:29:45.300Z,4.90
2023-04-09T18:32:15.311Z,6.60
2023-04-09T18:34:44.478Z,6.90
2023-04-09T18:37:11.606Z,7.00
2023-04-09T18:39:40.198Z,5.70
2023-04-09T18:42:07.858Z,4.30
2023-04-09T18:44:36.889Z,4.20
2023-04-09T18:47:08.761Z,3.40
2023-04-09T18:49:37.804Z,4.00
2023-04-09T18:52:07.408Z,4.20
2023-04-09T18:54:36.594Z,4.40
2023-04-09T18:57:05.162Z,4.40
2023-04-09T18:59:34.562Z,4.10
2023-04-09T19:02:05.499Z,4.10
2023-04-09T19:04:38.959Z,5.00
2023-04-09T19:07:07.163Z,4.40
2023-04-09T19:09:34.194Z,4.60
2023-04-09T19:12:06.050Z,4.60
2023-04-09T19:14:36.438Z,4.20
2023-04-09T19:17:03.385Z,4.50
2023-04-09T19:19:33.294Z,4.10
2023-04-09T19:22:01.409Z,4.10
2023-04-09T19:24:28.598Z,4.20
2023-04-09T19:27:00.650Z,3.80
2023-04-09T19:29:27.649Z,4.40
2023-04-09T19:31:58.305Z,3.20
2023-04-09T19:34:25.202Z,3.70
2023-04-09T19:36:52.117Z,3.70
2023-04-09T19:39:19.889Z,3.80
2023-04-09T19:41:47.081Z,3.80
2023-04-09T19:44:13.862Z,4.30
2023-04-09T19:46:40.826Z,3.90
2023-04-09T19:49:07.697Z,3.90
2023-04-09T19:51:37.010Z,3.60
2023-04-09T19:54:05.259Z,3.60
2023-04-09T19:56:38.901Z,4.00
2023-04-09T19:59:05.992Z,3.70
2023-04-09T20:01:33.348Z,3.70
2023-04-09T20:04:00.415Z,3.80
2023-04-09T20:06:28.642Z,3.70
2023-04-09T20:08:55.617Z,3.50
2023-04-09T20:11:22.563Z,3.90
2023-04-09T20:13:49.405Z,4.30
2023-04-09T20:16:16.718Z,4.50
2023-04-09T20:18:43.580Z,4.90
2023-04-09T20:21:13.732Z,4.80
2023-04-09T20:23:40.711Z,5.40
2023-04-09T20:26:10.582Z,4.50
2023-04-09T20:28:37.562Z,4.30
2023-04-09T20:31:05.521Z,4.40
2023-04-09T20:33:32.425Z,4.40
2023-04-09T20:36:00.265Z,4.20
2023-04-09T20:38:27.178Z,4.50
2023-04-09T20:40:53.990Z,4.00
2023-04-09T20:43:21.499Z,4.40
2023-04-09T20:45:52.844Z,5.20
2023-04-09T20:48:21.469Z,4.70
2023-04-09T20:50:48.321Z,4.60
2023-04-09T20:53:15.129Z,4.20
2023-04-09T20:55:41.878Z,4.40
2023-04-09T20:58:11.970Z,4.00
2023-04-09T21:00:39.282Z,3.70
2023-04-09T21:03:06.802Z,3.60
2023-04-09T21:05:39.921Z,4.00
2023-04-09T21:08:07.046Z,4.20
2023-04-09T21:10:34.122Z,4.70
2023-04-09T21:13:05.716Z,4.20
2023-04-09T21:15:33.340Z,4.10
2023-04-09T21:18:00.652Z,5.00
2023-04-09T21:20:30.116Z,4.90
2023-04-09T21:22:57.483Z,5.20
2023-04-09T21:25:27.798Z,4.90
2023-04-09T21:27:58.722Z,4.90
2023-04-09T21:30:27.216Z,4.30
2023-04-09T21:32:54.066Z,4.80
2023-04-09T21:35:22.546Z,4.80
2023-04-09T21:37:49.366Z,5.10
2023-04-09T21:40:17.869Z,5.80
2023-04-09T21:42:46.005Z,5.00
2023-04-09T21:45:12.942Z,5.40
2023-04-09T21:47:45.790Z,5.30
2023-04-09T21:50:14.152Z,5.40
2023-04-09T21:52:41.349Z,5.90
2023-04-09T21:55:09.797Z,4.90
2023-04-09T21:57:36.666Z,4.80
2023-04-09T22:00:04.805Z,4.40
2023-04-09T22:02:37.893Z,4.60
2023-04-09T22:05:06.080Z,5.20
2023-04-09T22:07:36.690Z,4.80
2023-04-09T22:10:04.325Z,5.10
2023-04-09T22:12:33.341Z,4.80
2023-04-09T22:15:03.441Z,4.40
2023-04-09T22:17:31.506Z,4.00
2023-04-09T22:20:05.304Z,5.30
2023-04-09T22:22:33.320Z,4.70
2023-04-09T22:25:00.326Z,5.20
2023-04-09T22:27:33.580Z,4.80
2023-04-09T22:30:00.544Z,5.10
2023-04-09T22:32:28.299Z,4.70
2023-04-09T22:34:55.463Z,4.70
2023-04-09T22:37:22.591Z,5.10
2023-04-09T22:39:50.009Z,5.20
2023-04-09T22:42:16.842Z,5.20
2023-04-09T22:44:43.662Z,4.70
2023-04-09T22:47:11.795Z,4.70
2023-04-09T22:49:39.121Z,4.70
2023-04-09T22:52:06.105Z,5.10
2023-04-09T22:54:34.140Z,4.10
2023-04-09T22:57:01.633Z,4.80
2023-04-09T22:59:37.252Z,4.90
2023-04-09T23:02:06.755Z,4.70
2023-04-09T23:04:35.159Z,4.40
2023-04-09T23:07:02.470Z,4.30
2023-04-09T23:09:32.026Z,4.60
2023-04-09T23:11:58.841Z,5.10
2023-04-09T23:14:26.152Z,4.10
2023-04-09T23:16:52.993Z,4.60
2023-04-09T23:19:22.554Z,4.90
2023-04-09T23:21:49.602Z,4.20
2023-04-09T23:24:17.083Z,4.60
2023-04-09T23:26:46.449Z,4.80
2023-04-09T23:29:13.288Z,4.70
2023-04-09T23:31:41.454Z,4.00
2023-04-09T23:34:08.912Z,4.60
2023-04-09T23:36:35.649Z,4.90
2023-04-09T23:39:02.812Z,5.40
2023-04-09T23:41:30.233Z,4.80
2023-04-09T23:43:56.970Z,4.70
2023-04-09T23:46:25.299Z,4.50
2023-04-09T23:48:52.155Z,4.30
2023-04-09T23:51:19.083Z,4.00
2023-04-09T23:53:46.425Z,4.70
2023-04-09T23:56:13.729Z,4.80
2023-04-09T23:58:42.245Z,4.70
